PWSweather.com
Personal Weather Stations
Station Observations
SD92115WX
El Cerrito Stoneybluff, San Diego, CA 92115

El Cerrito StoneybluffSan Diego, CA 92115

Lat: 32.754096, Lon: -117.066705

Elevation: 420

Station Type: Davis Vantage Vue

http://stoneybluff.com

High Low Average
Temperature 64.9°F18.3°C 49.3°F9.6°C 55.9°F13.3°C
Dew Point 56.7°F13.7°C 48.2°F9.0°C 52.4°F11.3°C
Winds 12.3 mph 19.8 kmh Calm Calm 3.0 mph SE4.8 kmh SE
Wind Gusts 32.9 mph52.9 kmh -- 6.0 mph9.7 kmh
Humidity 96% 63% 88%
Pressure 29.90 in1012.5 mb 29.68 in1005.1 mb -
Precipitation 0.83 in21.1 mm - -
Hour Temp Dew Point Humidity Winds Wind Gusts Pressure Precip Precip Rate Daily Precip Total
12:03 AM 55.8°F13.2°C 53.2°F11.8°C 91% Calm Calm -- 29.90 in1012.5 mb 0.01 in0.3 mm 0.20 in5.1 mm 0.01 in0.3 mm
12:08 AM 55.8°F13.2°C 53.2°F11.8°C 91% Calm Calm -- 29.89 in1012.2 mb 0.01 in0.3 mm 0.00 in0.0 mm 0.01 in0.3 mm
12:13 AM 55.6°F13.1°C 53.1°F11.7°C 91% Calm Calm -- 29.88 in1011.9 mb 0.01 in0.3 mm 0.00 in0.0 mm 0.01 in0.3 mm
12:18 AM 55.6°F13.1°C 53.1°F11.7°C 91% Calm Calm -- 29.88 in1011.9 mb 0.01 in0.3 mm 0.00 in0.0 mm 0.01 in0.3 mm
12:23 AM 55.6°F13.1°C 53.1°F11.7°C 91% Calm Calm -- 29.88 in1011.9 mb 0.01 in0.3 mm 0.00 in0.0 mm 0.01 in0.3 mm
12:28 AM 55.6°F13.1°C 53.1°F11.7°C 91% Calm Calm -- 29.88 in1011.9 mb 0.00 in0.0 mm 0.00 in0.0 mm 0.01 in0.3 mm
12:33 AM 55.6°F13.1°C 53.2°F11.8°C 92% Calm Calm -- 29.88 in1011.9 mb 0.00 in0.0 mm 0.00 in0.0 mm 0.01 in0.3 mm
12:38 AM 55.6°F13.1°C 53.2°F11.8°C 92% Calm Calm -- 29.88 in1011.9 mb 0.00 in0.0 mm 0.00 in0.0 mm 0.01 in0.3 mm
12:43 AM 55.4°F13.0°C 53.1°F11.7°C 92% Calm Calm -- 29.88 in1011.9 mb 0.00 in0.0 mm 0.00 in0.0 mm 0.01 in0.3 mm
12:48 AM 55.4°F13.0°C 53.1°F11.7°C 92% Calm Calm -- 29.88 in1011.9 mb 0.01 in0.3 mm 0.12 in3.0 mm 0.01 in0.3 mm
12:53 AM 55.4°F13.0°C 53.1°F11.7°C 92% Calm Calm -- 29.88 in1011.9 mb 0.01 in0.3 mm 0.00 in0.0 mm 0.01 in0.3 mm
12:58 AM 55.2°F12.9°C 52.9°F11.6°C 92% Calm Calm -- 29.88 in1011.9 mb 0.01 in0.3 mm 0.00 in0.0 mm 0.01 in0.3 mm
01:03 AM 55.2°F12.9°C 52.9°F11.6°C 92% Calm Calm -- 29.88 in1011.9 mb 0.01 in0.3 mm 0.00 in0.0 mm 0.01 in0.3 mm
01:08 AM 55.4°F13.0°C 53.1°F11.7°C 92% Calm Calm -- 29.87 in1011.5 mb 0.01 in0.3 mm 0.00 in0.0 mm 0.01 in0.3 mm
01:13 AM 55.4°F13.0°C 53.1°F11.7°C 92% Calm Calm -- 29.88 in1011.9 mb 0.01 in0.3 mm 0.00 in0.0 mm 0.01 in0.3 mm
01:18 AM 55.4°F13.0°C 53.1°F11.7°C 92% Calm Calm -- 29.88 in1011.9 mb 0.01 in0.3 mm 0.00 in0.0 mm 0.01 in0.3 mm
01:23 AM 55.2°F12.9°C 52.9°F11.6°C 92% Calm Calm -- 29.89 in1012.2 mb 0.01 in0.3 mm 0.00 in0.0 mm 0.01 in0.3 mm
01:28 AM 55.2°F12.9°C 52.9°F11.6°C 92% Calm Calm -- 29.89 in1012.2 mb 0.01 in0.3 mm 0.00 in0.0 mm 0.01 in0.3 mm
01:33 AM 55.2°F12.9°C 53.2°F11.8°C 93% Calm Calm -- 29.89 in1012.2 mb 0.01 in0.3 mm 0.00 in0.0 mm 0.01 in0.3 mm
01:38 AM 55.4°F13.0°C 53.4°F11.9°C 93% Calm Calm -- 29.89 in1012.2 mb 0.01 in0.3 mm 0.00 in0.0 mm 0.01 in0.3 mm
01:43 AM 55.4°F13.0°C 53.4°F11.9°C 93% Calm Calm -- 29.89 in1012.2 mb 0.01 in0.3 mm 0.00 in0.0 mm 0.01 in0.3 mm
01:48 AM 55.4°F13.0°C 53.4°F11.9°C 93% Calm Calm -- 29.89 in1012.2 mb 0.00 in0.0 mm 0.00 in0.0 mm 0.01 in0.3 mm
01:53 AM 55.4°F13.0°C 53.4°F11.9°C 93% Calm Calm -- 29.88 in1011.9 mb 0.00 in0.0 mm 0.00 in0.0 mm 0.01 in0.3 mm
01:58 AM 55.6°F13.1°C 53.6°F12.0°C 93% Calm Calm -- 29.88 in1011.9 mb 0.00 in0.0 mm 0.00 in0.0 mm 0.01 in0.3 mm
02:03 AM 55.6°F13.1°C 53.6°F12.0°C 93% Calm Calm -- 29.88 in1011.9 mb 0.00 in0.0 mm 0.00 in0.0 mm 0.01 in0.3 mm
02:08 AM 55.6°F13.1°C 53.6°F12.0°C 93% Calm Calm -- 29.89 in1012.2 mb 0.00 in0.0 mm 0.00 in0.0 mm 0.01 in0.3 mm
02:13 AM 55.6°F13.1°C 53.6°F12.0°C 93% Calm Calm -- 29.89 in1012.2 mb 0.00 in0.0 mm 0.00 in0.0 mm 0.01 in0.3 mm
02:18 AM 55.6°F13.1°C 53.6°F12.0°C 93% Calm Calm -- 29.88 in1011.9 mb 0.00 in0.0 mm 0.00 in0.0 mm 0.01 in0.3 mm
02:23 AM 55.6°F13.1°C 53.6°F12.0°C 93% Calm Calm -- 29.89 in1012.2 mb 0.00 in0.0 mm 0.00 in0.0 mm 0.01 in0.3 mm
02:28 AM 55.6°F13.1°C 53.6°F12.0°C 93% Calm Calm -- 29.89 in1012.2 mb 0.01 in0.3 mm 0.12 in3.0 mm 0.02 in0.5 mm
02:33 AM 55.6°F13.1°C 53.6°F12.0°C 93% Calm Calm -- 29.90 in1012.5 mb 0.01 in0.3 mm 0.00 in0.0 mm 0.02 in0.5 mm
02:38 AM 55.6°F13.1°C 53.6°F12.0°C 93% Calm Calm -- 29.90 in1012.5 mb 0.01 in0.3 mm 0.00 in0.0 mm 0.02 in0.5 mm
02:43 AM 55.4°F13.0°C 53.4°F11.9°C 93% Calm Calm -- 29.89 in1012.2 mb 0.01 in0.3 mm 0.00 in0.0 mm 0.02 in0.5 mm
02:48 AM 55.2°F12.9°C 53.2°F11.8°C 93% Calm Calm -- 29.88 in1011.9 mb 0.01 in0.3 mm 0.00 in0.0 mm 0.02 in0.5 mm
02:53 AM 55.2°F12.9°C 53.2°F11.8°C 93% 0.4 mph ENE0.6 kmh ENE 3.1 mph5.0 kmh 29.86 in1011.2 mb 0.01 in0.3 mm 0.00 in0.0 mm 0.02 in0.5 mm
02:58 AM 55.2°F12.9°C 53.2°F11.8°C 93% Calm Calm 2.0 mph3.2 kmh 29.86 in1011.2 mb 0.01 in0.3 mm 0.00 in0.0 mm 0.02 in0.5 mm
03:03 AM 55.2°F12.9°C 53.2°F11.8°C 93% Calm Calm -- 29.88 in1011.9 mb 0.01 in0.3 mm 0.00 in0.0 mm 0.02 in0.5 mm
03:08 AM 55.2°F12.9°C 53.2°F11.8°C 93% Calm Calm 1.1 mph1.8 kmh 29.88 in1011.9 mb 0.01 in0.3 mm 0.00 in0.0 mm 0.02 in0.5 mm
03:13 AM 55.2°F12.9°C 53.6°F12.0°C 94% Calm Calm -- 29.87 in1011.5 mb 0.01 in0.3 mm 0.00 in0.0 mm 0.02 in0.5 mm
03:18 AM 55.2°F12.9°C 53.6°F12.0°C 94% Calm Calm -- 29.87 in1011.5 mb 0.01 in0.3 mm 0.00 in0.0 mm 0.02 in0.5 mm
03:23 AM 55.2°F12.9°C 53.6°F12.0°C 94% Calm Calm -- 29.86 in1011.2 mb 0.01 in0.3 mm 0.00 in0.0 mm 0.02 in0.5 mm
03:28 AM 55.0°F12.8°C 53.4°F11.9°C 94% Calm Calm -- 29.85 in1010.8 mb 0.00 in0.0 mm 0.00 in0.0 mm 0.02 in0.5 mm
03:33 AM 55.0°F12.8°C 53.4°F11.9°C 94% Calm Calm -- 29.85 in1010.8 mb 0.00 in0.0 mm 0.00 in0.0 mm 0.02 in0.5 mm
03:38 AM 55.0°F12.8°C 53.4°F11.9°C 94% Calm Calm -- 29.85 in1010.8 mb 0.00 in0.0 mm 0.00 in0.0 mm 0.02 in0.5 mm
03:43 AM 55.0°F12.8°C 53.4°F11.9°C 94% 0.2 mph ENE0.3 kmh ENE 1.1 mph1.8 kmh 29.85 in1010.8 mb 0.00 in0.0 mm 0.00 in0.0 mm 0.02 in0.5 mm
03:48 AM 55.0°F12.8°C 53.4°F11.9°C 94% Calm Calm -- 29.85 in1010.8 mb 0.00 in0.0 mm 0.00 in0.0 mm 0.02 in0.5 mm
03:53 AM 54.9°F12.7°C 53.2°F11.8°C 94% Calm Calm -- 29.85 in1010.8 mb 0.00 in0.0 mm 0.00 in0.0 mm 0.02 in0.5 mm
03:58 AM 54.9°F12.7°C 53.2°F11.8°C 94% Calm Calm -- 29.85 in1010.8 mb 0.00 in0.0 mm 0.00 in0.0 mm 0.02 in0.5 mm
04:03 AM 54.9°F12.7°C 53.2°F11.8°C 94% Calm Calm -- 29.85 in1010.8 mb 0.00 in0.0 mm 0.00 in0.0 mm 0.02 in0.5 mm
04:08 AM 54.7°F12.6°C 53.1°F11.7°C 94% Calm Calm -- 29.85 in1010.8 mb 0.00 in0.0 mm 0.00 in0.0 mm 0.02 in0.5 mm
04:13 AM 54.7°F12.6°C 53.1°F11.7°C 94% Calm Calm -- 29.85 in1010.8 mb 0.00 in0.0 mm 0.00 in0.0 mm 0.02 in0.5 mm
04:18 AM 54.7°F12.6°C 53.1°F11.7°C 94% Calm Calm -- 29.84 in1010.5 mb 0.00 in0.0 mm 0.00 in0.0 mm 0.02 in0.5 mm
04:23 AM 54.7°F12.6°C 53.1°F11.7°C 94% Calm Calm -- 29.84 in1010.5 mb 0.00 in0.0 mm 0.00 in0.0 mm 0.02 in0.5 mm
04:28 AM 54.9°F12.7°C 53.2°F11.8°C 94% Calm Calm -- 29.84 in1010.5 mb 0.00 in0.0 mm 0.00 in0.0 mm 0.02 in0.5 mm
04:33 AM 54.7°F12.6°C 53.1°F11.7°C 94% Calm Calm -- 29.84 in1010.5 mb 0.00 in0.0 mm 0.00 in0.0 mm 0.02 in0.5 mm
04:38 AM 54.7°F12.6°C 53.1°F11.7°C 94% Calm Calm -- 29.83 in1010.2 mb 0.00 in0.0 mm 0.00 in0.0 mm 0.02 in0.5 mm
04:43 AM 54.7°F12.6°C 53.1°F11.7°C 94% Calm Calm -- 29.83 in1010.2 mb 0.00 in0.0 mm 0.00 in0.0 mm 0.02 in0.5 mm
04:48 AM 54.7°F12.6°C 53.1°F11.7°C 94% Calm Calm -- 29.83 in1010.2 mb 0.00 in0.0 mm 0.00 in0.0 mm 0.02 in0.5 mm
04:53 AM 54.7°F12.6°C 53.1°F11.7°C 94% Calm Calm -- 29.83 in1010.2 mb 0.00 in0.0 mm 0.00 in0.0 mm 0.02 in0.5 mm
04:58 AM 54.7°F12.6°C 53.1°F11.7°C 94% Calm Calm -- 29.83 in1010.2 mb 0.00 in0.0 mm 0.00 in0.0 mm 0.02 in0.5 mm
05:03 AM 54.3°F12.4°C 52.7°F11.5°C 94% Calm Calm -- 29.83 in1010.2 mb 0.00 in0.0 mm 0.00 in0.0 mm 0.02 in0.5 mm
05:08 AM 54.5°F12.5°C 52.9°F11.6°C 94% Calm Calm -- 29.83 in1010.2 mb 0.00 in0.0 mm 0.00 in0.0 mm 0.02 in0.5 mm
05:13 AM 54.3°F12.4°C 52.7°F11.5°C 94% Calm Calm -- 29.83 in1010.2 mb 0.00 in0.0 mm 0.00 in0.0 mm 0.02 in0.5 mm
05:18 AM 54.5°F12.5°C 53.1°F11.7°C 95% Calm Calm -- 29.83 in1010.2 mb 0.00 in0.0 mm 0.00 in0.0 mm 0.02 in0.5 mm
05:23 AM 54.5°F12.5°C 52.9°F11.6°C 94% Calm Calm -- 29.83 in1010.2 mb 0.00 in0.0 mm 0.00 in0.0 mm 0.02 in0.5 mm
05:28 AM 54.3°F12.4°C 52.7°F11.5°C 94% Calm Calm -- 29.83 in1010.2 mb 0.00 in0.0 mm 0.00 in0.0 mm 0.02 in0.5 mm
05:33 AM 54.3°F12.4°C 52.7°F11.5°C 94% Calm Calm -- 29.84 in1010.5 mb 0.00 in0.0 mm 0.00 in0.0 mm 0.02 in0.5 mm
05:38 AM 54.3°F12.4°C 52.9°F11.6°C 95% Calm Calm -- 29.84 in1010.5 mb 0.00 in0.0 mm 0.00 in0.0 mm 0.02 in0.5 mm
05:43 AM 54.3°F12.4°C 52.9°F11.6°C 95% Calm Calm -- 29.84 in1010.5 mb 0.00 in0.0 mm 0.00 in0.0 mm 0.02 in0.5 mm
05:48 AM 54.3°F12.4°C 52.9°F11.6°C 95% Calm Calm -- 29.84 in1010.5 mb 0.00 in0.0 mm 0.00 in0.0 mm 0.02 in0.5 mm
05:53 AM 54.1°F12.3°C 52.7°F11.5°C 95% Calm Calm -- 29.84 in1010.5 mb 0.00 in0.0 mm 0.00 in0.0 mm 0.02 in0.5 mm
05:58 AM 54.1°F12.3°C 52.7°F11.5°C 95% Calm Calm -- 29.84 in1010.5 mb 0.00 in0.0 mm 0.00 in0.0 mm 0.02 in0.5 mm
06:03 AM 54.1°F12.3°C 52.7°F11.5°C 95% Calm Calm 1.1 mph1.8 kmh 29.84 in1010.5 mb 0.00 in0.0 mm 0.00 in0.0 mm 0.02 in0.5 mm
06:08 AM 54.1°F12.3°C 52.7°F11.5°C 95% Calm Calm -- 29.85 in1010.8 mb 0.00 in0.0 mm 0.00 in0.0 mm 0.02 in0.5 mm
06:13 AM 54.1°F12.3°C 52.7°F11.5°C 95% Calm Calm -- 29.85 in1010.8 mb 0.00 in0.0 mm 0.00 in0.0 mm 0.02 in0.5 mm
06:18 AM 54.3°F12.4°C 52.9°F11.6°C 95% Calm Calm -- 29.84 in1010.5 mb 0.00 in0.0 mm 0.00 in0.0 mm 0.02 in0.5 mm
06:23 AM 54.3°F12.4°C 52.9°F11.6°C 95% Calm Calm 1.1 mph1.8 kmh 29.84 in1010.5 mb 0.00 in0.0 mm 0.00 in0.0 mm 0.02 in0.5 mm
06:28 AM 54.1°F12.3°C 52.7°F11.5°C 95% Calm Calm -- 29.84 in1010.5 mb 0.00 in0.0 mm 0.00 in0.0 mm 0.02 in0.5 mm
06:33 AM 54.1°F12.3°C 52.7°F11.5°C 95% Calm Calm -- 29.84 in1010.5 mb 0.00 in0.0 mm 0.00 in0.0 mm 0.02 in0.5 mm
06:38 AM 54.1°F12.3°C 52.7°F11.5°C 95% Calm Calm -- 29.84 in1010.5 mb 0.00 in0.0 mm 0.00 in0.0 mm 0.02 in0.5 mm
06:43 AM 54.1°F12.3°C 52.7°F11.5°C 95% Calm Calm -- 29.84 in1010.5 mb 0.00 in0.0 mm 0.00 in0.0 mm 0.02 in0.5 mm
06:48 AM 54.0°F12.2°C 52.5°F11.4°C 95% Calm Calm -- 29.84 in1010.5 mb 0.00 in0.0 mm 0.00 in0.0 mm 0.02 in0.5 mm
06:53 AM 54.0°F12.2°C 52.5°F11.4°C 95% Calm Calm -- 29.84 in1010.5 mb 0.00 in0.0 mm 0.00 in0.0 mm 0.02 in0.5 mm
06:58 AM 54.0°F12.2°C 52.5°F11.4°C 95% Calm Calm -- 29.84 in1010.5 mb 0.00 in0.0 mm 0.00 in0.0 mm 0.02 in0.5 mm
07:03 AM 54.1°F12.3°C 52.7°F11.5°C 95% Calm Calm -- 29.84 in1010.5 mb 0.00 in0.0 mm 0.00 in0.0 mm 0.02 in0.5 mm
07:08 AM 54.1°F12.3°C 52.7°F11.5°C 95% Calm Calm -- 29.85 in1010.8 mb 0.00 in0.0 mm 0.00 in0.0 mm 0.02 in0.5 mm
07:13 AM 54.1°F12.3°C 52.7°F11.5°C 95% Calm Calm -- 29.85 in1010.8 mb 0.00 in0.0 mm 0.00 in0.0 mm 0.02 in0.5 mm
07:18 AM 54.3°F12.4°C 52.9°F11.6°C 95% Calm Calm -- 29.85 in1010.8 mb 0.00 in0.0 mm 0.00 in0.0 mm 0.02 in0.5 mm
07:23 AM 54.7°F12.6°C 53.2°F11.8°C 95% Calm Calm -- 29.85 in1010.8 mb 0.00 in0.0 mm 0.00 in0.0 mm 0.02 in0.5 mm
07:28 AM 54.7°F12.6°C 53.2°F11.8°C 95% Calm Calm -- 29.85 in1010.8 mb 0.00 in0.0 mm 0.00 in0.0 mm 0.02 in0.5 mm
07:33 AM 54.9°F12.7°C 53.4°F11.9°C 95% Calm Calm -- 29.85 in1010.8 mb 0.00 in0.0 mm 0.00 in0.0 mm 0.02 in0.5 mm
07:38 AM 55.0°F12.8°C 53.6°F12.0°C 95% Calm Calm -- 29.85 in1010.8 mb 0.00 in0.0 mm 0.00 in0.0 mm 0.02 in0.5 mm
07:43 AM 55.2°F12.9°C 53.8°F12.1°C 95% Calm Calm -- 29.85 in1010.8 mb 0.00 in0.0 mm 0.00 in0.0 mm 0.02 in0.5 mm
07:48 AM 55.6°F13.1°C 54.1°F12.3°C 95% Calm Calm -- 29.85 in1010.8 mb 0.00 in0.0 mm 0.00 in0.0 mm 0.02 in0.5 mm
07:53 AM 55.8°F13.2°C 54.3°F12.4°C 95% Calm Calm -- 29.85 in1010.8 mb 0.00 in0.0 mm 0.00 in0.0 mm 0.02 in0.5 mm
07:58 AM 55.6°F13.1°C 54.0°F12.2°C 94% 0.4 mph SE0.6 kmh SE 2.0 mph3.2 kmh 29.85 in1010.8 mb 0.00 in0.0 mm 0.00 in0.0 mm 0.02 in0.5 mm
08:03 AM 55.8°F13.2°C 54.3°F12.4°C 95% Calm Calm 1.1 mph1.8 kmh 29.86 in1011.2 mb 0.00 in0.0 mm 0.00 in0.0 mm 0.02 in0.5 mm
08:08 AM 55.9°F13.3°C 54.5°F12.5°C 95% 0.2 mph SE0.3 kmh SE 1.1 mph1.8 kmh 29.86 in1011.2 mb 0.00 in0.0 mm 0.00 in0.0 mm 0.02 in0.5 mm
08:13 AM 56.1°F13.4°C 54.7°F12.6°C 95% Calm Calm -- 29.86 in1011.2 mb 0.00 in0.0 mm 0.00 in0.0 mm 0.02 in0.5 mm
08:18 AM 56.5°F13.6°C 55.0°F12.8°C 95% Calm Calm 2.0 mph3.2 kmh 29.86 in1011.2 mb 0.00 in0.0 mm 0.00 in0.0 mm 0.02 in0.5 mm
08:23 AM 56.7°F13.7°C 55.0°F12.8°C 94% 0.2 mph SE0.3 kmh SE 1.1 mph1.8 kmh 29.85 in1010.8 mb 0.00 in0.0 mm 0.00 in0.0 mm 0.02 in0.5 mm
08:28 AM 56.7°F13.7°C 55.0°F12.8°C 94% 0.4 mph SSE0.6 kmh SSE 2.0 mph3.2 kmh 29.86 in1011.2 mb 0.00 in0.0 mm 0.00 in0.0 mm 0.02 in0.5 mm
08:33 AM 57.0°F13.9°C 55.0°F12.8°C 93% 1.1 mph SSE1.8 kmh SSE 2.0 mph3.2 kmh 29.86 in1011.2 mb 0.00 in0.0 mm 0.00 in0.0 mm 0.02 in0.5 mm
08:38 AM 57.0°F13.9°C 55.0°F12.8°C 93% 0.9 mph SSW1.4 kmh SSW 3.1 mph5.0 kmh 29.86 in1011.2 mb 0.00 in0.0 mm 0.00 in0.0 mm 0.02 in0.5 mm
08:43 AM 57.4°F14.1°C 55.0°F12.8°C 92% 3.8 mph SW6.1 kmh SW 5.4 mph8.7 kmh 29.86 in1011.2 mb 0.00 in0.0 mm 0.00 in0.0 mm 0.02 in0.5 mm
08:48 AM 57.7°F14.3°C 55.2°F12.9°C 91% 2.5 mph SW4.0 kmh SW 5.4 mph8.7 kmh 29.87 in1011.5 mb 0.00 in0.0 mm 0.00 in0.0 mm 0.02 in0.5 mm
08:53 AM 58.3°F14.6°C 55.0°F12.8°C 89% 1.8 mph SSW2.9 kmh SSW 4.3 mph6.9 kmh 29.86 in1011.2 mb 0.00 in0.0 mm 0.00 in0.0 mm 0.02 in0.5 mm
08:58 AM 58.6°F14.8°C 54.9°F12.7°C 87% 0.4 mph SW0.6 kmh SW 2.0 mph3.2 kmh 29.87 in1011.5 mb 0.00 in0.0 mm 0.00 in0.0 mm 0.02 in0.5 mm
09:03 AM 59.0°F15.0°C 54.9°F12.7°C 86% 1.8 mph SSE2.9 kmh SSE 6.3 mph10.1 kmh 29.87 in1011.5 mb 0.00 in0.0 mm 0.00 in0.0 mm 0.02 in0.5 mm
09:08 AM 59.4°F15.2°C 54.5°F12.5°C 84% 1.6 mph SSE2.6 kmh SSE 5.4 mph8.7 kmh 29.87 in1011.5 mb 0.00 in0.0 mm 0.00 in0.0 mm 0.02 in0.5 mm
09:13 AM 59.7°F15.4°C 54.1°F12.3°C 82% 3.8 mph SE6.1 kmh SE 9.6 mph15.4 kmh 29.87 in1011.5 mb 0.00 in0.0 mm 0.00 in0.0 mm 0.02 in0.5 mm
09:18 AM 60.3°F15.7°C 54.1°F12.3°C 80% 3.4 mph SSE5.5 kmh SSE 9.6 mph15.4 kmh 29.87 in1011.5 mb 0.00 in0.0 mm 0.00 in0.0 mm 0.02 in0.5 mm
09:23 AM 60.6°F15.9°C 54.1°F12.3°C 79% 3.6 mph SW5.8 kmh SW 10.5 mph16.9 kmh 29.87 in1011.5 mb 0.00 in0.0 mm 0.00 in0.0 mm 0.02 in0.5 mm
09:28 AM 60.8°F16.0°C 54.3°F12.4°C 79% 4.7 mph SW7.6 kmh SW 8.5 mph13.7 kmh 29.87 in1011.5 mb 0.00 in0.0 mm 0.00 in0.0 mm 0.02 in0.5 mm
09:33 AM 61.0°F16.1°C 53.8°F12.1°C 77% 4.9 mph SW7.9 kmh SW 13.9 mph22.4 kmh 29.87 in1011.5 mb 0.00 in0.0 mm 0.00 in0.0 mm 0.02 in0.5 mm
09:38 AM 61.2°F16.2°C 53.6°F12.0°C 76% 7.2 mph S11.6 kmh S 15.9 mph25.6 kmh 29.87 in1011.5 mb 0.00 in0.0 mm 0.00 in0.0 mm 0.02 in0.5 mm
09:43 AM 61.3°F16.3°C 53.1°F11.7°C 74% 8.3 mph SSE13.4 kmh SSE 19.0 mph30.6 kmh 29.87 in1011.5 mb 0.00 in0.0 mm 0.00 in0.0 mm 0.02 in0.5 mm
09:48 AM 61.3°F16.3°C 53.1°F11.7°C 74% 7.8 mph S12.6 kmh S 14.8 mph23.8 kmh 29.87 in1011.5 mb 0.00 in0.0 mm 0.00 in0.0 mm 0.02 in0.5 mm
09:53 AM 61.5°F16.4°C 53.2°F11.8°C 74% 7.6 mph SSE12.2 kmh SSE 18.1 mph29.1 kmh 29.86 in1011.2 mb 0.00 in0.0 mm 0.00 in0.0 mm 0.02 in0.5 mm
09:58 AM 61.5°F16.4°C 53.6°F12.0°C 75% 9.2 mph E14.8 kmh E 21.3 mph34.3 kmh 29.87 in1011.5 mb 0.00 in0.0 mm 0.00 in0.0 mm 0.02 in0.5 mm
10:03 AM 61.5°F16.4°C 53.6°F12.0°C 75% 9.6 mph SSE15.4 kmh SSE 22.4 mph36.0 kmh 29.87 in1011.5 mb 0.00 in0.0 mm 0.00 in0.0 mm 0.02 in0.5 mm
10:08 AM 61.5°F16.4°C 54.0°F12.2°C 76% 8.1 mph SSW13.0 kmh SSW 15.9 mph25.6 kmh 29.86 in1011.2 mb 0.00 in0.0 mm 0.00 in0.0 mm 0.02 in0.5 mm
10:13 AM 61.9°F16.6°C 54.7°F12.6°C 77% 10.3 mph SSE16.6 kmh SSE 20.1 mph32.3 kmh 29.86 in1011.2 mb 0.00 in0.0 mm 0.00 in0.0 mm 0.02 in0.5 mm
10:18 AM 61.9°F16.6°C 54.7°F12.6°C 77% 8.7 mph SE14.0 kmh SE 15.9 mph25.6 kmh 29.86 in1011.2 mb 0.00 in0.0 mm 0.00 in0.0 mm 0.02 in0.5 mm
10:23 AM 62.1°F16.7°C 55.0°F12.8°C 78% 8.7 mph SE14.0 kmh SE 18.1 mph29.1 kmh 29.86 in1011.2 mb 0.01 in0.3 mm 0.12 in3.0 mm 0.03 in0.8 mm
10:28 AM 62.1°F16.7°C 55.0°F12.8°C 78% 8.1 mph S13.0 kmh S 19.0 mph30.6 kmh 29.85 in1010.8 mb 0.01 in0.3 mm 0.00 in0.0 mm 0.03 in0.8 mm
10:33 AM 62.2°F16.8°C 55.6°F13.1°C 79% 8.3 mph SSE13.4 kmh SSE 20.1 mph32.3 kmh 29.85 in1010.8 mb 0.01 in0.3 mm 0.00 in0.0 mm 0.03 in0.8 mm
10:38 AM 62.4°F16.9°C 55.8°F13.2°C 79% 9.4 mph S15.1 kmh S 21.3 mph34.3 kmh 29.85 in1010.8 mb 0.01 in0.3 mm 0.00 in0.0 mm 0.03 in0.8 mm
10:43 AM 62.6°F17.0°C 55.9°F13.3°C 79% 7.8 mph SW12.6 kmh SW 19.0 mph30.6 kmh 29.84 in1010.5 mb 0.01 in0.3 mm 0.00 in0.0 mm 0.03 in0.8 mm
10:48 AM 62.8°F17.1°C 56.1°F13.4°C 79% 8.3 mph S13.4 kmh S 19.0 mph30.6 kmh 29.84 in1010.5 mb 0.01 in0.3 mm 0.00 in0.0 mm 0.03 in0.8 mm
10:53 AM 63.0°F17.2°C 55.9°F13.3°C 78% 8.7 mph S14.0 kmh S 20.1 mph32.3 kmh 29.84 in1010.5 mb 0.01 in0.3 mm 0.00 in0.0 mm 0.03 in0.8 mm
10:58 AM 63.0°F17.2°C 55.9°F13.3°C 78% 11.9 mph SE19.2 kmh SE 19.0 mph30.6 kmh 29.83 in1010.2 mb 0.01 in0.3 mm 0.00 in0.0 mm 0.03 in0.8 mm
11:03 AM 63.1°F17.3°C 56.1°F13.4°C 78% 10.5 mph SSW16.9 kmh SSW 17.0 mph27.4 kmh 29.83 in1010.2 mb 0.01 in0.3 mm 0.00 in0.0 mm 0.03 in0.8 mm
11:08 AM 63.1°F17.3°C 56.1°F13.4°C 78% 9.6 mph S15.4 kmh S 17.0 mph27.4 kmh 29.83 in1010.2 mb 0.01 in0.3 mm 0.00 in0.0 mm 0.03 in0.8 mm
11:13 AM 63.3°F17.4°C 56.3°F13.5°C 78% 7.6 mph SSW12.2 kmh SSW 17.0 mph27.4 kmh 29.83 in1010.2 mb 0.01 in0.3 mm 0.00 in0.0 mm 0.03 in0.8 mm
11:18 AM 63.3°F17.4°C 56.3°F13.5°C 78% 8.9 mph SSE14.3 kmh SSE 14.8 mph23.8 kmh 29.83 in1010.2 mb 0.01 in0.3 mm 0.00 in0.0 mm 0.03 in0.8 mm
11:23 AM 63.7°F17.6°C 56.7°F13.7°C 78% 7.4 mph SW11.9 kmh SW 17.0 mph27.4 kmh 29.82 in1009.8 mb 0.00 in0.0 mm 0.00 in0.0 mm 0.03 in0.8 mm
11:28 AM 63.9°F17.7°C 56.5°F13.6°C 77% 11.4 mph SSE18.3 kmh SSE 18.1 mph29.1 kmh 29.82 in1009.8 mb 0.00 in0.0 mm 0.00 in0.0 mm 0.03 in0.8 mm
11:33 AM 64.0°F17.8°C 56.3°F13.5°C 76% 10.7 mph S17.2 kmh S 20.1 mph32.3 kmh 29.81 in1009.5 mb 0.00 in0.0 mm 0.00 in0.0 mm 0.03 in0.8 mm
11:38 AM 64.2°F17.9°C 56.5°F13.6°C 76% 8.3 mph SE13.4 kmh SE 13.9 mph22.4 kmh 29.81 in1009.5 mb 0.00 in0.0 mm 0.00 in0.0 mm 0.03 in0.8 mm
11:43 AM 64.4°F18.0°C 56.3°F13.5°C 75% 10.3 mph SE16.6 kmh SE 22.4 mph36.0 kmh 29.80 in1009.1 mb 0.00 in0.0 mm 0.00 in0.0 mm 0.03 in0.8 mm
11:48 AM 64.4°F18.0°C 55.2°F12.9°C 72% 11.0 mph S17.7 kmh S 22.4 mph36.0 kmh 29.79 in1008.8 mb 0.00 in0.0 mm 0.00 in0.0 mm 0.03 in0.8 mm
11:53 AM 64.8°F18.2°C 55.6°F13.1°C 72% 7.6 mph SW12.2 kmh SW 20.1 mph32.3 kmh 29.79 in1008.8 mb 0.00 in0.0 mm 0.00 in0.0 mm 0.03 in0.8 mm
11:58 AM 64.8°F18.2°C 55.2°F12.9°C 71% 7.4 mph SE11.9 kmh SE 20.1 mph32.3 kmh 29.79 in1008.8 mb 0.00 in0.0 mm 0.00 in0.0 mm 0.03 in0.8 mm
12:03 PM 64.8°F18.2°C 53.1°F11.7°C 66% 12.3 mph S19.8 kmh S 30.9 mph49.7 kmh 29.78 in1008.5 mb 0.00 in0.0 mm 0.00 in0.0 mm 0.03 in0.8 mm
12:08 PM 64.9°F18.3°C 53.8°F12.1°C 67% 7.6 mph SE12.2 kmh SE 19.0 mph30.6 kmh 29.78 in1008.5 mb 0.00 in0.0 mm 0.00 in0.0 mm 0.03 in0.8 mm
12:13 PM 64.8°F18.2°C 53.1°F11.7°C 66% 11.0 mph S17.7 kmh S 20.1 mph32.3 kmh 29.77 in1008.1 mb 0.00 in0.0 mm 0.00 in0.0 mm 0.03 in0.8 mm
12:18 PM 64.6°F18.1°C 52.9°F11.6°C 66% 9.6 mph S15.4 kmh S 18.1 mph29.1 kmh 29.76 in1007.8 mb 0.00 in0.0 mm 0.00 in0.0 mm 0.03 in0.8 mm
12:23 PM 64.6°F18.1°C 52.2°F11.2°C 64% 10.3 mph SSE16.6 kmh SSE 17.0 mph27.4 kmh 29.76 in1007.8 mb 0.00 in0.0 mm 0.00 in0.0 mm 0.03 in0.8 mm
12:28 PM 64.6°F18.1°C 52.2°F11.2°C 64% 5.1 mph SSE8.2 kmh SSE 19.0 mph30.6 kmh 29.76 in1007.8 mb 0.00 in0.0 mm 0.00 in0.0 mm 0.03 in0.8 mm
12:33 PM 64.4°F18.0°C 52.0°F11.1°C 64% 8.5 mph SE13.7 kmh SE 15.9 mph25.6 kmh 29.75 in1007.5 mb 0.00 in0.0 mm 0.00 in0.0 mm 0.03 in0.8 mm
12:38 PM 64.2°F17.9°C 51.8°F11.0°C 64% 7.8 mph SSE12.6 kmh SSE 20.1 mph32.3 kmh 29.75 in1007.5 mb 0.00 in0.0 mm 0.00 in0.0 mm 0.03 in0.8 mm
12:43 PM 64.2°F17.9°C 51.4°F10.8°C 63% 10.3 mph SE16.6 kmh SE 19.0 mph30.6 kmh 29.73 in1006.8 mb 0.00 in0.0 mm 0.00 in0.0 mm 0.03 in0.8 mm
12:48 PM 64.2°F17.9°C 51.4°F10.8°C 63% 8.1 mph S13.0 kmh S 17.0 mph27.4 kmh 29.74 in1007.1 mb 0.00 in0.0 mm 0.00 in0.0 mm 0.03 in0.8 mm
12:53 PM 64.2°F17.9°C 51.4°F10.8°C 63% 10.5 mph SW16.9 kmh SW 20.1 mph32.3 kmh 29.74 in1007.1 mb 0.00 in0.0 mm 0.00 in0.0 mm 0.03 in0.8 mm
12:58 PM 64.2°F17.9°C 51.8°F11.0°C 64% 11.6 mph SSE18.7 kmh SSE 21.3 mph34.3 kmh 29.74 in1007.1 mb 0.00 in0.0 mm 0.00 in0.0 mm 0.03 in0.8 mm
01:03 PM 64.0°F17.8°C 52.5°F11.4°C 66% 10.1 mph S16.3 kmh S 21.3 mph34.3 kmh 29.73 in1006.8 mb 0.00 in0.0 mm 0.00 in0.0 mm 0.03 in0.8 mm
01:08 PM 63.9°F17.7°C 52.7°F11.5°C 67% 8.7 mph S14.0 kmh S 17.0 mph27.4 kmh 29.73 in1006.8 mb 0.00 in0.0 mm 0.00 in0.0 mm 0.03 in0.8 mm
01:13 PM 63.9°F17.7°C 53.4°F11.9°C 69% 7.6 mph SSE12.2 kmh SSE 14.8 mph23.8 kmh 29.73 in1006.8 mb 0.00 in0.0 mm 0.00 in0.0 mm 0.03 in0.8 mm
01:18 PM 63.7°F17.6°C 53.2°F11.8°C 69% 6.0 mph SE9.7 kmh SE 14.8 mph23.8 kmh 29.73 in1006.8 mb 0.00 in0.0 mm 0.00 in0.0 mm 0.03 in0.8 mm
01:23 PM 63.7°F17.6°C 52.9°F11.6°C 68% 6.5 mph SSW10.5 kmh SSW 14.8 mph23.8 kmh 29.73 in1006.8 mb 0.00 in0.0 mm 0.00 in0.0 mm 0.03 in0.8 mm
01:28 PM 63.5°F17.5°C 53.1°F11.7°C 69% 6.0 mph SE9.7 kmh SE 12.8 mph20.6 kmh 29.73 in1006.8 mb 0.00 in0.0 mm 0.00 in0.0 mm 0.03 in0.8 mm
01:33 PM 63.3°F17.4°C 53.1°F11.7°C 69% 7.6 mph SW12.2 kmh SW 15.9 mph25.6 kmh 29.72 in1006.4 mb 0.00 in0.0 mm 0.00 in0.0 mm 0.03 in0.8 mm
01:38 PM 63.3°F17.4°C 53.1°F11.7°C 69% 4.5 mph SSE7.2 kmh SSE 15.9 mph25.6 kmh 29.72 in1006.4 mb 0.00 in0.0 mm 0.00 in0.0 mm 0.03 in0.8 mm
01:43 PM 63.3°F17.4°C 53.1°F11.7°C 69% 6.0 mph SW9.7 kmh SW 11.6 mph18.7 kmh 29.72 in1006.4 mb 0.00 in0.0 mm 0.00 in0.0 mm 0.03 in0.8 mm
01:48 PM 63.3°F17.4°C 52.5°F11.4°C 68% 8.7 mph S14.0 kmh S 17.0 mph27.4 kmh 29.72 in1006.4 mb 0.00 in0.0 mm 0.00 in0.0 mm 0.03 in0.8 mm
01:53 PM 63.3°F17.4°C 53.1°F11.7°C 69% 7.6 mph SE12.2 kmh SE 14.8 mph23.8 kmh 29.73 in1006.8 mb 0.00 in0.0 mm 0.00 in0.0 mm 0.03 in0.8 mm
01:58 PM 63.1°F17.3°C 52.9°F11.6°C 69% 8.1 mph S13.0 kmh S 18.1 mph29.1 kmh 29.72 in1006.4 mb 0.00 in0.0 mm 0.00 in0.0 mm 0.03 in0.8 mm
02:03 PM 63.0°F17.2°C 52.7°F11.5°C 69% 9.6 mph SW15.4 kmh SW 18.1 mph29.1 kmh 29.72 in1006.4 mb 0.00 in0.0 mm 0.00 in0.0 mm 0.03 in0.8 mm
02:08 PM 63.0°F17.2°C 53.1°F11.7°C 70% 7.6 mph SSE12.2 kmh SSE 18.1 mph29.1 kmh 29.72 in1006.4 mb 0.00 in0.0 mm 0.00 in0.0 mm 0.03 in0.8 mm
02:13 PM 62.6°F17.0°C 53.1°F11.7°C 71% 11.2 mph S18.0 kmh S 17.0 mph27.4 kmh 29.71 in1006.1 mb 0.00 in0.0 mm 0.00 in0.0 mm 0.03 in0.8 mm
02:18 PM 62.1°F16.7°C 53.2°F11.8°C 73% 9.6 mph SW15.4 kmh SW 19.0 mph30.6 kmh 29.71 in1006.1 mb 0.00 in0.0 mm 0.00 in0.0 mm 0.03 in0.8 mm
02:23 PM 62.1°F16.7°C 53.6°F12.0°C 74% 6.3 mph ESE10.1 kmh ESE 19.0 mph30.6 kmh 29.71 in1006.1 mb 0.00 in0.0 mm 0.00 in0.0 mm 0.03 in0.8 mm
02:28 PM 62.1°F16.7°C 53.6°F12.0°C 74% 4.7 mph NW7.6 kmh NW 14.8 mph23.8 kmh 29.71 in1006.1 mb 0.00 in0.0 mm 0.00 in0.0 mm 0.03 in0.8 mm
02:33 PM 62.1°F16.7°C 53.6°F12.0°C 74% 6.0 mph S9.7 kmh S 14.8 mph23.8 kmh 29.71 in1006.1 mb 0.00 in0.0 mm 0.00 in0.0 mm 0.03 in0.8 mm
02:38 PM 62.2°F16.8°C 53.8°F12.1°C 74% 6.3 mph S10.1 kmh S 13.9 mph22.4 kmh 29.70 in1005.8 mb 0.00 in0.0 mm 0.00 in0.0 mm 0.03 in0.8 mm
02:43 PM 62.2°F16.8°C 53.8°F12.1°C 74% 6.7 mph SE10.8 kmh SE 20.1 mph32.3 kmh 29.69 in1005.4 mb 0.00 in0.0 mm 0.00 in0.0 mm 0.03 in0.8 mm
02:48 PM 62.1°F16.7°C 53.6°F12.0°C 74% 3.8 mph SW6.1 kmh SW 12.8 mph20.6 kmh 29.69 in1005.4 mb 0.00 in0.0 mm 0.00 in0.0 mm 0.03 in0.8 mm
02:53 PM 62.1°F16.7°C 54.0°F12.2°C 75% 4.5 mph SE7.2 kmh SE 12.8 mph20.6 kmh 29.69 in1005.4 mb 0.00 in0.0 mm 0.00 in0.0 mm 0.03 in0.8 mm
02:58 PM 62.1°F16.7°C 54.0°F12.2°C 75% 8.3 mph SW13.4 kmh SW 21.3 mph34.3 kmh 29.68 in1005.1 mb 0.00 in0.0 mm 0.00 in0.0 mm 0.03 in0.8 mm
03:03 PM 62.2°F16.8°C 54.1°F12.3°C 75% 8.3 mph SW13.4 kmh SW 24.4 mph39.3 kmh 29.69 in1005.4 mb 0.00 in0.0 mm 0.00 in0.0 mm 0.03 in0.8 mm
03:08 PM 62.1°F16.7°C 54.3°F12.4°C 76% 11.6 mph WSW18.7 kmh WSW 32.9 mph52.9 kmh 29.69 in1005.4 mb 0.00 in0.0 mm 0.00 in0.0 mm 0.03 in0.8 mm
03:13 PM 61.7°F16.5°C 54.9°F12.7°C 78% 8.7 mph ESE14.0 kmh ESE 22.4 mph36.0 kmh 29.69 in1005.4 mb 0.00 in0.0 mm 0.00 in0.0 mm 0.03 in0.8 mm
03:18 PM 61.3°F16.3°C 55.0°F12.8°C 80% 8.3 mph SSE13.4 kmh SSE 26.6 mph42.8 kmh 29.69 in1005.4 mb 0.00 in0.0 mm 0.00 in0.0 mm 0.03 in0.8 mm
03:23 PM 61.0°F16.1°C 55.0°F12.8°C 81% 6.0 mph SW9.7 kmh SW 18.1 mph29.1 kmh 29.70 in1005.8 mb 0.00 in0.0 mm 0.00 in0.0 mm 0.03 in0.8 mm
03:28 PM 60.3°F15.7°C 55.4°F13.0°C 84% 4.7 mph SSE7.6 kmh SSE 11.6 mph18.7 kmh 29.69 in1005.4 mb 0.01 in0.3 mm 0.12 in3.0 mm 0.04 in1.0 mm
03:33 PM 59.9°F15.5°C 55.4°F13.0°C 85% 6.0 mph WSW9.7 kmh WSW 11.6 mph18.7 kmh 29.71 in1006.1 mb 0.02 in0.5 mm 0.12 in3.0 mm 0.05 in1.3 mm
03:38 PM 59.5°F15.3°C 55.6°F13.1°C 87% 6.0 mph SSW9.7 kmh SSW 12.8 mph20.6 kmh 29.72 in1006.4 mb 0.09 in2.3 mm 0.84 in21.3 mm 0.12 in3.0 mm
03:43 PM 59.2°F15.1°C 55.6°F13.1°C 88% 9.2 mph SSW14.8 kmh SSW 15.9 mph25.6 kmh 29.72 in1006.4 mb 0.10 in2.5 mm 0.12 in3.0 mm 0.13 in3.3 mm
03:48 PM 58.6°F14.8°C 55.4°F13.0°C 89% 7.4 mph SW11.9 kmh SW 14.8 mph23.8 kmh 29.72 in1006.4 mb 0.12 in3.0 mm 0.24 in6.1 mm 0.15 in3.8 mm
03:53 PM 57.4°F14.1°C 54.1°F12.3°C 89% 7.6 mph WSW12.2 kmh WSW 19.0 mph30.6 kmh 29.72 in1006.4 mb 0.13 in3.3 mm 0.12 in3.0 mm 0.16 in4.1 mm
03:58 PM 56.5°F13.6°C 53.6°F12.0°C 90% 6.7 mph W10.8 kmh W 14.8 mph23.8 kmh 29.72 in1006.4 mb 0.14 in3.6 mm 0.12 in3.0 mm 0.17 in4.3 mm
04:03 PM 56.1°F13.4°C 53.6°F12.0°C 91% 3.6 mph WSW5.8 kmh WSW 10.5 mph16.9 kmh 29.74 in1007.1 mb 0.15 in3.8 mm 0.01 in0.3 mm 0.18 in4.6 mm
04:08 PM 55.9°F13.3°C 53.6°F12.0°C 92% 3.4 mph NW5.5 kmh NW 6.3 mph10.1 kmh 29.75 in1007.5 mb 0.16 in4.1 mm 0.12 in3.0 mm 0.19 in4.8 mm
04:13 PM 55.8°F13.2°C 53.4°F11.9°C 92% 8.3 mph WSW13.4 kmh WSW 12.8 mph20.6 kmh 29.75 in1007.5 mb 0.17 in4.3 mm 0.12 in3.0 mm 0.20 in5.1 mm
04:18 PM 55.6°F13.1°C 53.2°F11.8°C 92% 4.0 mph NW6.4 kmh NW 12.8 mph20.6 kmh 29.74 in1007.1 mb 0.20 in5.1 mm 0.36 in9.1 mm 0.24 in6.1 mm
04:23 PM 55.2°F12.9°C 52.9°F11.6°C 92% 8.1 mph WNW13.0 kmh WNW 17.0 mph27.4 kmh 29.75 in1007.5 mb 0.22 in5.6 mm 0.24 in6.1 mm 0.25 in6.4 mm
04:28 PM 54.7°F12.6°C 52.3°F11.3°C 92% 6.7 mph NW10.8 kmh NW 15.9 mph25.6 kmh 29.76 in1007.8 mb 0.22 in5.6 mm 0.00 in0.0 mm 0.26 in6.6 mm
04:33 PM 54.3°F12.4°C 52.3°F11.3°C 93% 4.0 mph NW6.4 kmh NW 14.8 mph23.8 kmh 29.77 in1008.1 mb 0.22 in5.6 mm 0.00 in0.0 mm 0.27 in6.9 mm
04:38 PM 54.0°F12.2°C 51.6°F10.9°C 92% 7.2 mph NW11.6 kmh NW 12.8 mph20.6 kmh 29.77 in1008.1 mb 0.17 in4.3 mm 0.00 in0.0 mm 0.29 in7.4 mm
04:43 PM 53.2°F11.8°C 51.3°F10.7°C 93% 5.8 mph N9.3 kmh N 12.8 mph20.6 kmh 29.76 in1007.8 mb 0.18 in4.6 mm 0.12 in3.0 mm 0.32 in8.1 mm
04:48 PM 52.9°F11.6°C 50.5°F10.3°C 92% 7.2 mph WNW11.6 kmh WNW 13.9 mph22.4 kmh 29.76 in1007.8 mb 0.19 in4.8 mm 0.12 in3.0 mm 0.34 in8.6 mm
04:53 PM 52.2°F11.2°C 49.8°F9.9°C 92% 4.3 mph S6.9 kmh S 11.6 mph18.7 kmh 29.78 in1008.5 mb 0.19 in4.8 mm 0.00 in0.0 mm 0.35 in8.9 mm
04:58 PM 52.0°F11.1°C 50.0°F10.0°C 93% 0.4 mph WSW0.6 kmh WSW 6.3 mph10.1 kmh 29.78 in1008.5 mb 0.21 in5.3 mm 0.24 in6.1 mm 0.38 in9.7 mm
05:03 PM 52.0°F11.1°C 50.0°F10.0°C 93% 0.9 mph SSW1.4 kmh SSW 6.3 mph10.1 kmh 29.78 in1008.5 mb 0.22 in5.6 mm 0.01 in0.3 mm 0.40 in10.2 mm
05:08 PM 51.6°F10.9°C 49.6°F9.8°C 93% 1.6 mph SW2.6 kmh SW 5.4 mph8.7 kmh 29.78 in1008.5 mb 0.23 in5.8 mm 0.12 in3.0 mm 0.42 in10.7 mm
05:13 PM 51.6°F10.9°C 50.0°F10.0°C 94% 0.7 mph SW1.1 kmh SW 3.1 mph5.0 kmh 29.78 in1008.5 mb 0.25 in6.4 mm 0.24 in6.1 mm 0.45 in11.4 mm
05:18 PM 51.6°F10.9°C 50.0°F10.0°C 94% 0.9 mph WSW1.4 kmh WSW 2.0 mph3.2 kmh 29.79 in1008.8 mb 0.27 in6.9 mm 0.24 in6.1 mm 0.50 in12.7 mm
05:23 PM 51.6°F10.9°C 50.0°F10.0°C 94% 0.4 mph SSW0.6 kmh SSW 2.0 mph3.2 kmh 29.79 in1008.8 mb 0.28 in7.1 mm 0.12 in3.0 mm 0.53 in13.5 mm
05:28 PM 51.4°F10.8°C 49.8°F9.9°C 94% Calm Calm 1.1 mph1.8 kmh 29.79 in1008.8 mb 0.29 in7.4 mm 0.12 in3.0 mm 0.56 in14.2 mm
05:33 PM 51.4°F10.8°C 49.8°F9.9°C 94% Calm Calm 2.0 mph3.2 kmh 29.80 in1009.1 mb 0.31 in7.9 mm 0.24 in6.1 mm 0.59 in15.0 mm
05:38 PM 51.4°F10.8°C 49.8°F9.9°C 94% Calm Calm 1.1 mph1.8 kmh 29.79 in1008.8 mb 0.32 in8.1 mm 0.12 in3.0 mm 0.61 in15.5 mm
05:43 PM 51.4°F10.8°C 49.8°F9.9°C 94% Calm Calm 1.1 mph1.8 kmh 29.80 in1009.1 mb 0.33 in8.4 mm 0.12 in3.0 mm 0.64 in16.3 mm
05:48 PM 51.4°F10.8°C 49.8°F9.9°C 94% Calm Calm 1.1 mph1.8 kmh 29.79 in1008.8 mb 0.33 in8.4 mm 0.00 in0.0 mm 0.67 in17.0 mm
05:53 PM 51.4°F10.8°C 49.8°F9.9°C 94% Calm Calm 1.1 mph1.8 kmh 29.80 in1009.1 mb 0.35 in8.9 mm 0.24 in6.1 mm 0.70 in17.8 mm
05:58 PM 51.4°F10.8°C 49.8°F9.9°C 94% Calm Calm 1.1 mph1.8 kmh 29.80 in1009.1 mb 0.34 in8.6 mm 0.00 in0.0 mm 0.72 in18.3 mm
06:03 PM 51.4°F10.8°C 49.8°F9.9°C 94% 0.2 mph E0.3 kmh E 1.1 mph1.8 kmh 29.80 in1009.1 mb 0.34 in8.6 mm 0.00 in0.0 mm 0.74 in18.8 mm
06:08 PM 51.4°F10.8°C 50.0°F10.0°C 95% Calm Calm 1.1 mph1.8 kmh 29.80 in1009.1 mb 0.35 in8.9 mm 0.12 in3.0 mm 0.77 in19.6 mm
06:13 PM 51.6°F10.9°C 50.2°F10.1°C 95% Calm Calm -- 29.80 in1009.1 mb 0.35 in8.9 mm 0.00 in0.0 mm 0.80 in20.3 mm
06:18 PM 51.4°F10.8°C 50.0°F10.0°C 95% Calm Calm -- 29.80 in1009.1 mb 0.31 in7.9 mm 0.00 in0.0 mm 0.81 in20.6 mm
06:23 PM 51.4°F10.8°C 50.0°F10.0°C 95% Calm Calm -- 29.81 in1009.5 mb 0.29 in7.4 mm 0.00 in0.0 mm 0.82 in20.8 mm
06:28 PM 51.4°F10.8°C 50.0°F10.0°C 95% Calm Calm -- 29.81 in1009.5 mb 0.27 in6.9 mm 0.00 in0.0 mm 0.82 in20.8 mm
06:33 PM 51.4°F10.8°C 50.0°F10.0°C 95% Calm Calm 1.1 mph1.8 kmh 29.81 in1009.5 mb 0.24 in6.1 mm 0.00 in0.0 mm 0.82 in20.8 mm
06:38 PM 51.4°F10.8°C 50.0°F10.0°C 95% 0.4 mph NE0.6 kmh NE 2.0 mph3.2 kmh 29.81 in1009.5 mb 0.21 in5.3 mm 0.00 in0.0 mm 0.82 in20.8 mm
06:43 PM 51.4°F10.8°C 50.0°F10.0°C 95% Calm Calm 1.1 mph1.8 kmh 29.80 in1009.1 mb 0.18 in4.6 mm 0.00 in0.0 mm 0.82 in20.8 mm
06:48 PM 51.4°F10.8°C 50.0°F10.0°C 95% Calm Calm 1.1 mph1.8 kmh 29.81 in1009.5 mb 0.15 in3.8 mm 0.00 in0.0 mm 0.82 in20.8 mm
06:53 PM 51.3°F10.7°C 49.8°F9.9°C 95% Calm Calm 2.0 mph3.2 kmh 29.81 in1009.5 mb 0.12 in3.0 mm 0.00 in0.0 mm 0.82 in20.8 mm
06:58 PM 51.3°F10.7°C 49.8°F9.9°C 95% Calm Calm 1.1 mph1.8 kmh 29.80 in1009.1 mb 0.10 in2.5 mm 0.00 in0.0 mm 0.82 in20.8 mm
07:03 PM 51.3°F10.7°C 49.8°F9.9°C 95% Calm Calm 6.3 mph10.1 kmh 29.80 in1009.1 mb 0.08 in2.0 mm 0.00 in0.0 mm 0.82 in20.8 mm
07:08 PM 51.3°F10.7°C 49.8°F9.9°C 95% 0.9 mph NE1.4 kmh NE 4.3 mph6.9 kmh 29.80 in1009.1 mb 0.05 in1.3 mm 0.00 in0.0 mm 0.82 in20.8 mm
07:13 PM 51.1°F10.6°C 49.6°F9.8°C 95% Calm Calm 4.3 mph6.9 kmh 29.80 in1009.1 mb 0.02 in0.5 mm 0.00 in0.0 mm 0.82 in20.8 mm
07:18 PM 51.1°F10.6°C 49.6°F9.8°C 95% 0.2 mph NW0.3 kmh NW 2.0 mph3.2 kmh 29.80 in1009.1 mb 0.01 in0.3 mm 0.00 in0.0 mm 0.82 in20.8 mm
07:23 PM 51.1°F10.6°C 49.6°F9.8°C 95% Calm Calm 1.1 mph1.8 kmh 29.80 in1009.1 mb 0.00 in0.0 mm 0.00 in0.0 mm 0.82 in20.8 mm
07:28 PM 51.1°F10.6°C 49.6°F9.8°C 95% Calm Calm 1.1 mph1.8 kmh 29.80 in1009.1 mb 0.00 in0.0 mm 0.00 in0.0 mm 0.82 in20.8 mm
07:33 PM 51.1°F10.6°C 49.6°F9.8°C 95% 0.2 mph ENE0.3 kmh ENE 2.0 mph3.2 kmh 29.81 in1009.5 mb 0.00 in0.0 mm 0.00 in0.0 mm 0.82 in20.8 mm
07:38 PM 50.9°F10.5°C 49.5°F9.7°C 95% Calm Calm 2.0 mph3.2 kmh 29.80 in1009.1 mb 0.00 in0.0 mm 0.00 in0.0 mm 0.82 in20.8 mm
07:43 PM 50.9°F10.5°C 49.5°F9.7°C 95% Calm Calm 3.1 mph5.0 kmh 29.81 in1009.5 mb 0.00 in0.0 mm 0.00 in0.0 mm 0.82 in20.8 mm
07:48 PM 50.9°F10.5°C 49.5°F9.7°C 95% Calm Calm -- 29.81 in1009.5 mb 0.00 in0.0 mm 0.00 in0.0 mm 0.82 in20.8 mm
07:53 PM 50.9°F10.5°C 49.5°F9.7°C 95% 0.2 mph NW0.3 kmh NW 1.1 mph1.8 kmh 29.81 in1009.5 mb 0.00 in0.0 mm 0.00 in0.0 mm 0.82 in20.8 mm
07:58 PM 50.9°F10.5°C 49.5°F9.7°C 95% Calm Calm -- 29.81 in1009.5 mb 0.00 in0.0 mm 0.00 in0.0 mm 0.82 in20.8 mm
08:03 PM 50.7°F10.4°C 49.3°F9.6°C 95% Calm Calm -- 29.81 in1009.5 mb 0.00 in0.0 mm 0.00 in0.0 mm 0.82 in20.8 mm
08:08 PM 50.7°F10.4°C 49.3°F9.6°C 95% Calm Calm -- 29.82 in1009.8 mb 0.00 in0.0 mm 0.00 in0.0 mm 0.82 in20.8 mm
08:13 PM 50.7°F10.4°C 49.3°F9.6°C 95% Calm Calm -- 29.83 in1010.2 mb 0.00 in0.0 mm 0.00 in0.0 mm 0.82 in20.8 mm
08:18 PM 50.7°F10.4°C 49.3°F9.6°C 95% Calm Calm -- 29.82 in1009.8 mb 0.00 in0.0 mm 0.00 in0.0 mm 0.82 in20.8 mm
08:23 PM 50.7°F10.4°C 49.3°F9.6°C 95% Calm Calm -- 29.83 in1010.2 mb 0.00 in0.0 mm 0.00 in0.0 mm 0.82 in20.8 mm
08:28 PM 50.7°F10.4°C 49.3°F9.6°C 95% Calm Calm -- 29.83 in1010.2 mb 0.00 in0.0 mm 0.00 in0.0 mm 0.82 in20.8 mm
08:33 PM 50.7°F10.4°C 49.6°F9.8°C 96% Calm Calm -- 29.83 in1010.2 mb 0.00 in0.0 mm 0.00 in0.0 mm 0.82 in20.8 mm
08:38 PM 50.7°F10.4°C 49.3°F9.6°C 95% Calm Calm 1.1 mph1.8 kmh 29.83 in1010.2 mb 0.00 in0.0 mm 0.00 in0.0 mm 0.82 in20.8 mm
08:43 PM 50.7°F10.4°C 49.6°F9.8°C 96% Calm Calm -- 29.83 in1010.2 mb 0.00 in0.0 mm 0.00 in0.0 mm 0.82 in20.8 mm
08:48 PM 50.7°F10.4°C 49.3°F9.6°C 95% Calm Calm -- 29.83 in1010.2 mb 0.00 in0.0 mm 0.00 in0.0 mm 0.82 in20.8 mm
08:53 PM 50.5°F10.3°C 49.1°F9.5°C 95% Calm Calm -- 29.83 in1010.2 mb 0.00 in0.0 mm 0.00 in0.0 mm 0.82 in20.8 mm
08:58 PM 50.5°F10.3°C 49.1°F9.5°C 95% Calm Calm -- 29.83 in1010.2 mb 0.00 in0.0 mm 0.00 in0.0 mm 0.82 in20.8 mm
09:03 PM 50.5°F10.3°C 49.5°F9.7°C 96% Calm Calm -- 29.83 in1010.2 mb 0.00 in0.0 mm 0.00 in0.0 mm 0.82 in20.8 mm
09:08 PM 50.5°F10.3°C 49.5°F9.7°C 96% Calm Calm -- 29.84 in1010.5 mb 0.00 in0.0 mm 0.00 in0.0 mm 0.82 in20.8 mm
09:13 PM 50.5°F10.3°C 49.5°F9.7°C 96% Calm Calm -- 29.84 in1010.5 mb 0.00 in0.0 mm 0.00 in0.0 mm 0.82 in20.8 mm
09:18 PM 50.5°F10.3°C 49.5°F9.7°C 96% Calm Calm -- 29.84 in1010.5 mb 0.00 in0.0 mm 0.00 in0.0 mm 0.82 in20.8 mm
09:23 PM 50.5°F10.3°C 49.5°F9.7°C 96% Calm Calm -- 29.84 in1010.5 mb 0.00 in0.0 mm 0.00 in0.0 mm 0.82 in20.8 mm
09:28 PM 50.5°F10.3°C 49.5°F9.7°C 96% Calm Calm -- 29.84 in1010.5 mb 0.00 in0.0 mm 0.00 in0.0 mm 0.82 in20.8 mm
09:33 PM 50.4°F10.2°C 49.3°F9.6°C 96% Calm Calm -- 29.84 in1010.5 mb 0.00 in0.0 mm 0.00 in0.0 mm 0.82 in20.8 mm
09:38 PM 50.4°F10.2°C 49.3°F9.6°C 96% Calm Calm 1.1 mph1.8 kmh 29.85 in1010.8 mb 0.00 in0.0 mm 0.00 in0.0 mm 0.82 in20.8 mm
09:43 PM 50.4°F10.2°C 49.3°F9.6°C 96% Calm Calm 2.0 mph3.2 kmh 29.85 in1010.8 mb 0.00 in0.0 mm 0.00 in0.0 mm 0.82 in20.8 mm
09:48 PM 50.4°F10.2°C 49.3°F9.6°C 96% Calm Calm 2.0 mph3.2 kmh 29.85 in1010.8 mb 0.00 in0.0 mm 0.00 in0.0 mm 0.82 in20.8 mm
09:53 PM 50.4°F10.2°C 49.3°F9.6°C 96% Calm Calm 1.1 mph1.8 kmh 29.85 in1010.8 mb 0.00 in0.0 mm 0.00 in0.0 mm 0.82 in20.8 mm
09:58 PM 50.2°F10.1°C 49.1°F9.5°C 96% Calm Calm -- 29.85 in1010.8 mb 0.00 in0.0 mm 0.00 in0.0 mm 0.82 in20.8 mm
10:03 PM 49.8°F9.9°C 48.7°F9.3°C 96% Calm Calm -- 29.85 in1010.8 mb 0.01 in0.3 mm 0.01 in0.3 mm 0.83 in21.1 mm
10:08 PM 49.8°F9.9°C 48.7°F9.3°C 96% Calm Calm -- 29.85 in1010.8 mb 0.01 in0.3 mm 0.00 in0.0 mm 0.83 in21.1 mm
10:13 PM 49.8°F9.9°C 48.7°F9.3°C 96% Calm Calm -- 29.85 in1010.8 mb 0.01 in0.3 mm 0.00 in0.0 mm 0.83 in21.1 mm
10:18 PM 49.8°F9.9°C 48.7°F9.3°C 96% Calm Calm -- 29.85 in1010.8 mb 0.01 in0.3 mm 0.00 in0.0 mm 0.83 in21.1 mm
10:23 PM 49.8°F9.9°C 48.7°F9.3°C 96% Calm Calm 1.1 mph1.8 kmh 29.85 in1010.8 mb 0.01 in0.3 mm 0.00 in0.0 mm 0.83 in21.1 mm
10:28 PM 50.0°F10.0°C 48.9°F9.4°C 96% Calm Calm 1.1 mph1.8 kmh 29.85 in1010.8 mb 0.01 in0.3 mm 0.00 in0.0 mm 0.83 in21.1 mm
10:33 PM 50.2°F10.1°C 49.1°F9.5°C 96% Calm Calm 1.1 mph1.8 kmh 29.85 in1010.8 mb 0.01 in0.3 mm 0.00 in0.0 mm 0.83 in21.1 mm
10:38 PM 50.2°F10.1°C 49.1°F9.5°C 96% 1.1 mph SSE1.8 kmh SSE 2.0 mph3.2 kmh 29.85 in1010.8 mb 0.01 in0.3 mm 0.00 in0.0 mm 0.83 in21.1 mm
10:43 PM 50.2°F10.1°C 49.1°F9.5°C 96% 1.8 mph SSE2.9 kmh SSE 4.3 mph6.9 kmh 29.85 in1010.8 mb 0.01 in0.3 mm 0.00 in0.0 mm 0.83 in21.1 mm
10:48 PM 50.2°F10.1°C 49.1°F9.5°C 96% 2.0 mph S3.2 kmh S 4.3 mph6.9 kmh 29.85 in1010.8 mb 0.01 in0.3 mm 0.00 in0.0 mm 0.83 in21.1 mm
10:53 PM 50.4°F10.2°C 49.3°F9.6°C 96% 2.5 mph SE4.0 kmh SE 5.4 mph8.7 kmh 29.85 in1010.8 mb 0.01 in0.3 mm 0.00 in0.0 mm 0.83 in21.1 mm
10:58 PM 50.4°F10.2°C 49.3°F9.6°C 96% 0.2 mph SE0.3 kmh SE 6.3 mph10.1 kmh 29.85 in1010.8 mb 0.01 in0.3 mm 0.00 in0.0 mm 0.83 in21.1 mm
11:03 PM 50.4°F10.2°C 49.3°F9.6°C 96% 0.7 mph S1.1 kmh S 2.0 mph3.2 kmh 29.85 in1010.8 mb 0.00 in0.0 mm 0.00 in0.0 mm 0.83 in21.1 mm
11:08 PM 50.2°F10.1°C 49.1°F9.5°C 96% 0.2 mph SE0.3 kmh SE 2.0 mph3.2 kmh 29.85 in1010.8 mb 0.00 in0.0 mm 0.00 in0.0 mm 0.83 in21.1 mm
11:13 PM 50.2°F10.1°C 49.1°F9.5°C 96% Calm Calm 1.1 mph1.8 kmh 29.85 in1010.8 mb 0.00 in0.0 mm 0.00 in0.0 mm 0.83 in21.1 mm
11:18 PM 50.0°F10.0°C 48.9°F9.4°C 96% Calm Calm 1.1 mph1.8 kmh 29.85 in1010.8 mb 0.00 in0.0 mm 0.00 in0.0 mm 0.83 in21.1 mm
11:23 PM 49.8°F9.9°C 48.7°F9.3°C 96% Calm Calm -- 29.85 in1010.8 mb 0.00 in0.0 mm 0.00 in0.0 mm 0.83 in21.1 mm
11:28 PM 49.6°F9.8°C 48.6°F9.2°C 96% Calm Calm -- 29.85 in1010.8 mb 0.00 in0.0 mm 0.00 in0.0 mm 0.83 in21.1 mm
11:33 PM 49.6°F9.8°C 48.6°F9.2°C 96% Calm Calm -- 29.85 in1010.8 mb 0.00 in0.0 mm 0.00 in0.0 mm 0.83 in21.1 mm
11:38 PM 49.5°F9.7°C 48.4°F9.1°C 96% Calm Calm -- 29.86 in1011.2 mb 0.00 in0.0 mm 0.00 in0.0 mm 0.83 in21.1 mm
11:43 PM 49.3°F9.6°C 48.2°F9.0°C 96% Calm Calm -- 29.86 in1011.2 mb 0.00 in0.0 mm 0.00 in0.0 mm 0.83 in21.1 mm
11:48 PM 49.3°F9.6°C 48.2°F9.0°C 96% Calm Calm -- 29.86 in1011.2 mb 0.00 in0.0 mm 0.00 in0.0 mm 0.83 in21.1 mm
11:53 PM 49.3°F9.6°C 48.2°F9.0°C 96% Calm Calm -- 29.86 in1011.2 mb 0.00 in0.0 mm 0.00 in0.0 mm 0.83 in21.1 mm
11:58 PM 49.5°F9.7°C 48.4°F9.1°C 96% Calm Calm -- 29.86 in1011.2 mb 0.00 in0.0 mm 0.00 in0.0 mm 0.83 in21.1 mm